Time;durP1;ratioP1;P1;durP2;ratioP2;P2;SDS_P1;SDS_P2;PMS_P1;PMS_P2;Temp;Humidity;BMP_temperature;BMP_pressure;BME280_temperature;BME280_humidity;BME280_pressure;Samples;Min_cycle;Max_cycle;Signal;HPM_P1;HPM_P2
2021/05/02 00:00:12;;;;;;;24.18;14.00;;;8.00;99.90;;;;;;1959086;73;21120;-79
2021/05/02 00:02:38;;;;;;;24.77;14.43;;;7.90;99.90;;;;;;1959186;73;21173;-78
2021/05/02 00:05:04;;;;;;;27.70;15.35;;;7.80;99.90;;;;;;1959090;73;21075;-78
2021/05/02 00:07:32;;;;;;;27.65;15.72;;;7.90;99.90;;;;;;1959043;73;21174;-78
2021/05/02 00:10:01;;;;;;;28.38;14.50;;;7.90;99.90;;;;;;1959024;73;21093;-77
2021/05/02 00:12:30;;;;;;;21.15;13.18;;;7.90;99.90;;;;;;1959000;73;21143;-78
2021/05/02 00:14:59;;;;;;;28.83;15.68;;;7.90;99.90;;;;;;1961834;73;21500;-77
2021/05/02 00:17:24;;;;;;;25.75;14.53;;;7.90;99.90;;;;;;1958670;73;21085;-78
2021/05/02 00:19:51;;;;;;;21.87;14.75;;;7.90;99.90;;;;;;1959166;73;21158;-78
2021/05/02 00:22:17;;;;;;;26.40;15.65;;;7.90;99.90;;;;;;1958830;73;21141;-78
2021/05/02 00:24:43;;;;;;;25.45;15.05;;;7.90;99.90;;;;;;1958709;73;21133;-79
2021/05/02 00:27:09;;;;;;;27.10;14.13;;;7.90;99.90;;;;;;1958738;73;21188;-78
2021/05/02 00:29:38;;;;;;;28.90;14.25;;;7.80;99.90;;;;;;1958749;73;21072;-77
2021/05/02 00:32:11;;;;;;;23.92;13.38;;;7.80;99.90;;;;;;1959092;73;21088;-78
2021/05/02 00:34:33;;;;;;;25.52;15.40;;;7.80;99.90;;;;;;1957049;73;21150;-78
2021/05/02 00:37:01;;;;;;;24.30;14.25;;;7.80;99.90;;;;;;1958832;73;21144;-78
2021/05/02 00:39:27;;;;;;;24.75;14.30;;;7.90;99.90;;;;;;1958899;73;21061;-78
2021/05/02 00:41:57;;;;;;;26.70;14.85;;;7.80;99.90;;;;;;1958784;73;21067;-78
2021/05/02 00:44:25;;;;;;;24.87;13.90;;;7.80;99.90;;;;;;1957983;73;21092;-76
2021/05/02 00:46:57;;;;;;;19.37;12.80;;;7.80;99.90;;;;;;1958499;73;21214;-78
2021/05/02 00:49:18;;;;;;;21.90;12.58;;;7.70;99.90;;;;;;1953962;73;21219;-77
2021/05/02 00:51:44;;;;;;;24.35;14.07;;;7.70;99.90;;;;;;1926556;73;21029;-77
2021/05/02 00:54:11;;;;;;;16.97;12.60;;;7.70;99.90;;;;;;1959363;73;21207;-79
2021/05/02 00:56:37;;;;;;;21.10;13.15;;;7.70;99.90;;;;;;1961808;73;21544;-78
2021/05/02 00:59:03;;;;;;;20.40;12.70;;;7.70;99.90;;;;;;1959420;73;21088;-77
2021/05/02 01:01:32;;;;;;;21.87;13.50;;;7.60;99.90;;;;;;1959399;73;21094;-78
2021/05/02 01:03:58;;;;;;;20.43;12.63;;;7.60;99.90;;;;;;1959636;73;21586;-79
2021/05/02 01:06:24;;;;;;;20.57;12.85;;;7.60;99.90;;;;;;1960025;73;21060;-79
2021/05/02 01:08:56;;;;;;;18.45;12.68;;;7.60;99.90;;;;;;1959908;73;21157;-78
2021/05/02 01:11:18;;;;;;;19.87;12.82;;;7.60;99.90;;;;;;1959302;73;21096;-75
2021/05/02 01:13:50;;;;;;;24.65;13.20;;;7.50;99.90;;;;;;1960293;73;21084;-78
2021/05/02 01:16:14;;;;;;;20.97;12.65;;;7.50;99.90;;;;;;1958643;73;21097;-77
2021/05/02 01:18:42;;;;;;;20.57;13.15;;;7.50;99.90;;;;;;1958968;73;21178;-77
2021/05/02 01:21:15;;;;;;;18.12;12.68;;;7.40;99.90;;;;;;1958731;73;21137;-77
2021/05/02 01:23:39;;;;;;;;;;;7.40;99.90;;;;;;1960826;73;21134;-76
2021/05/02 01:26:05;;;;;;;18.35;12.35;;;7.50;99.90;;;;;;1958492;73;20136;-76
2021/05/02 01:28:31;;;;;;;18.95;12.65;;;7.50;99.90;;;;;;1958576;73;21056;-77
2021/05/02 01:30:57;;;;;;;20.72;12.47;;;7.40;99.90;;;;;;1960257;73;21060;-76
2021/05/02 01:33:23;;;;;;;20.20;12.93;;;7.40;99.90;;;;;;1958831;73;21137;-77
2021/05/02 01:35:49;;;;;;;21.55;13.25;;;7.30;99.90;;;;;;1958969;73;21214;-77
2021/05/02 01:38:16;;;;;;;17.55;12.55;;;7.30;99.90;;;;;;1958987;73;21136;-77
2021/05/02 01:40:42;;;;;;;19.50;12.68;;;7.30;99.90;;;;;;1958937;73;21089;-76
2021/05/02 01:43:11;;;;;;;18.55;12.10;;;7.40;99.90;;;;;;1958742;73;21072;-76
2021/05/02 01:45:39;;;;;;;19.25;12.40;;;7.30;99.90;;;;;;1957502;73;21084;-76
2021/05/02 01:48:07;;;;;;;21.17;13.03;;;7.30;99.90;;;;;;1958741;73;21483;-77
2021/05/02 01:50:33;;;;;;;22.13;13.28;;;7.40;99.90;;;;;;1958235;73;21155;-77
2021/05/02 01:52:59;;;;;;;22.93;13.50;;;7.40;99.90;;;;;;1959051;73;21301;-77
2021/05/02 01:55:25;;;;;;;19.35;12.00;;;7.30;99.90;;;;;;1959385;73;21094;-77
2021/05/02 01:57:51;;;;;;;19.60;12.58;;;7.30;99.90;;;;;;1958839;73;21166;-77
2021/05/02 02:00:19;;;;;;;18.12;12.55;;;7.30;99.90;;;;;;1958854;73;21081;-77
2021/05/02 02:02:48;;;;;;;19.02;13.08;;;7.30;99.90;;;;;;1958898;73;21189;-77
2021/05/02 02:05:16;;;;;;;21.90;12.33;;;7.30;99.90;;;;;;1958842;73;21173;-76
2021/05/02 02:07:43;;;;;;;20.35;12.82;;;7.30;99.90;;;;;;1958833;73;21056;-77
2021/05/02 02:10:09;;;;;;;22.00;13.05;;;7.30;99.90;;;;;;1958724;73;21119;-77
2021/05/02 02:12:42;;;;;;;21.57;13.05;;;7.30;99.90;;;;;;1958719;73;21032;-76
2021/05/02 02:15:08;;;;;;;25.25;11.88;;;7.30;99.90;;;;;;1958876;73;21085;-77
2021/05/02 02:17:34;;;;;;;19.00;12.60;;;7.30;99.90;;;;;;1960120;73;21097;-76
2021/05/02 02:20:03;;;;;;;19.12;12.58;;;7.30;99.90;;;;;;1958969;73;21170;-77
2021/05/02 02:22:28;;;;;;;28.45;13.32;;;7.20;99.90;;;;;;1958324;73;21099;-76
2021/05/02 02:24:57;;;;;;;21.12;12.80;;;7.30;99.90;;;;;;1958857;73;21088;-76
2021/05/02 02:27:23;;;;;;;21.20;12.20;;;7.30;99.90;;;;;;1958722;73;21130;-77
2021/05/02 02:29:50;;;;;;;16.62;11.97;;;7.30;99.90;;;;;;1958734;73;21181;-76
2021/05/02 02:32:16;;;;;;;19.65;12.60;;;7.30;99.90;;;;;;1958716;73;21073;-75
2021/05/02 02:34:55;;;;;;;20.55;13.85;;;7.20;99.90;;;;;;1958850;73;21133;-76
2021/05/02 02:37:15;;;;;;;22.27;13.13;;;7.20;99.90;;;;;;1953424;73;21144;-76
2021/05/02 02:39:40;;;;;;;;;;;7.20;99.90;;;;;;1960983;73;21140;-76
2021/05/02 02:42:10;;;;;;;26.60;12.73;;;7.20;99.90;;;;;;1946069;73;20119;-76
2021/05/02 02:44:34;;;;;;;17.85;12.63;;;7.20;99.90;;;;;;1957715;73;21484;-77
2021/05/02 02:47:06;;;;;;;18.00;12.55;;;7.20;99.90;;;;;;1958928;73;21085;-77
2021/05/02 02:49:32;;;;;;;19.95;13.10;;;7.20;99.90;;;;;;1958918;73;21512;-76
2021/05/02 02:52:01;;;;;;;23.67;14.60;;;7.20;99.90;;;;;;1958680;73;21437;-76
2021/05/02 02:54:27;;;;;;;23.83;14.13;;;7.20;99.90;;;;;;1958736;73;21066;-77
2021/05/02 02:56:57;;;;;;;21.07;13.80;;;7.10;99.90;;;;;;1958929;73;21096;-76
2021/05/02 02:59:23;;;;;;;26.17;15.25;;;7.20;99.90;;;;;;1959079;73;21096;-77
2021/05/02 03:01:49;;;;;;;23.32;14.50;;;7.20;99.90;;;;;;1958794;73;21602;-76
2021/05/02 03:04:15;;;;;;;26.80;14.78;;;7.20;99.90;;;;;;1958836;73;21500;-76
2021/05/02 03:06:41;;;;;;;23.38;13.58;;;7.20;99.90;;;;;;1959029;73;21065;-77
2021/05/02 03:09:07;;;;;;;27.48;15.60;;;7.20;99.90;;;;;;1958633;73;21028;-78
2021/05/02 03:11:36;;;;;;;18.90;13.68;;;7.20;99.90;;;;;;1958902;73;21092;-78
2021/05/02 03:14:04;;;;;;;29.45;14.98;;;7.20;99.90;;;;;;1958595;73;21497;-76
2021/05/02 03:16:30;;;;;;;20.52;14.83;;;7.20;99.90;;;;;;1948299;73;21049;-76
2021/05/02 03:18:57;;;;;;;31.90;14.93;;;7.20;99.90;;;;;;1958806;73;21109;-77
2021/05/02 03:21:25;;;;;;;27.13;14.68;;;7.20;99.90;;;;;;1958663;73;21123;-77
2021/05/02 03:23:52;;;;;;;21.70;14.13;;;7.20;99.90;;;;;;1958591;72;21185;-77
2021/05/02 03:26:18;;;;;;;24.77;15.58;;;7.20;99.90;;;;;;1959022;73;21480;-76
2021/05/02 03:28:46;;;;;;;22.15;14.63;;;7.10;99.90;;;;;;1958911;73;21496;-77
2021/05/02 03:31:12;;;;;;;23.38;15.18;;;7.20;99.90;;;;;;1958362;73;21097;-77
2021/05/02 03:33:42;;;;;;;22.90;13.62;;;7.10;99.90;;;;;;1958768;73;21113;-76
2021/05/02 03:36:05;;;;;;;22.75;13.15;;;7.00;99.90;;;;;;1957581;73;21163;-76
2021/05/02 03:38:32;;;;;;;24.07;14.40;;;7.00;99.90;;;;;;1952294;73;21076;-76
2021/05/02 03:41:00;;;;;;;27.07;14.63;;;7.10;99.90;;;;;;1958893;73;21096;-76
2021/05/02 03:43:26;;;;;;;25.30;14.33;;;7.00;99.90;;;;;;1958696;73;21101;-77
2021/05/02 03:45:52;;;;;;;27.55;13.90;;;7.00;99.90;;;;;;1958796;73;21108;-77
2021/05/02 03:48:18;;;;;;;27.05;15.85;;;7.10;99.90;;;;;;1958810;73;21036;-77
2021/05/02 03:50:44;;;;;;;20.40;13.55;;;7.10;99.90;;;;;;1958734;73;21142;-77
2021/05/02 03:53:10;;;;;;;25.32;13.93;;;7.10;99.90;;;;;;1958755;73;21112;-77
2021/05/02 03:55:36;;;;;;;21.25;14.10;;;7.10;99.90;;;;;;1958861;73;21101;-77
2021/05/02 03:58:02;;;;;;;25.23;14.87;;;7.10;99.90;;;;;;1958664;73;21068;-77
2021/05/02 04:00:28;;;;;;;20.72;14.63;;;7.10;99.90;;;;;;1958891;73;21100;-77
2021/05/02 04:02:55;;;;;;;27.13;14.85;;;7.00;99.90;;;;;;1958632;73;21153;-77
2021/05/02 04:05:21;;;;;;;20.40;14.28;;;7.00;99.90;;;;;;1958888;73;21077;-77
2021/05/02 04:07:47;;;;;;;20.15;14.18;;;6.90;99.90;;;;;;1958961;73;21093;-77
2021/05/02 04:10:13;;;;;;;19.90;13.50;;;6.90;99.90;;;;;;1958849;73;21137;-77
2021/05/02 04:12:39;;;;;;;21.77;13.53;;;7.00;99.90;;;;;;1958838;73;21107;-77
2021/05/02 04:15:05;;;;;;;26.23;14.95;;;7.00;99.90;;;;;;1958765;73;21464;-77
2021/05/02 04:17:31;;;;;;;24.30;14.05;;;6.90;99.90;;;;;;1958737;73;21468;-77
2021/05/02 04:19:57;;;;;;;23.52;14.78;;;6.90;99.90;;;;;;1958645;73;21463;-77
2021/05/02 04:22:29;;;;;;;21.33;13.30;;;6.90;99.90;;;;;;1958848;73;21551;-77
2021/05/02 04:24:51;;;;;;;18.98;13.15;;;6.90;99.90;;;;;;1959570;73;21108;-77
2021/05/02 04:27:18;;;;;;;22.48;12.95;;;7.00;99.90;;;;;;1958839;73;21085;-77
2021/05/02 04:29:44;;;;;;;21.95;13.43;;;7.00;99.90;;;;;;1958624;73;21146;-77
2021/05/02 04:32:10;;;;;;;20.00;13.20;;;7.10;99.90;;;;;;1958833;73;21156;-77
2021/05/02 04:34:36;;;;;;;20.62;13.58;;;7.10;99.90;;;;;;1958746;73;21056;-77
2021/05/02 04:37:02;;;;;;;23.55;13.78;;;7.20;99.90;;;;;;1958975;73;21563;-77
2021/05/02 04:39:29;;;;;;;20.08;13.78;;;7.30;99.90;;;;;;1958906;73;21546;-77
2021/05/02 04:41:55;;;;;;;23.77;13.72;;;7.20;99.90;;;;;;1959065;73;21041;-76
2021/05/02 04:44:21;;;;;;;23.80;15.10;;;7.20;99.90;;;;;;1958823;73;21075;-77
2021/05/02 04:46:47;;;;;;;24.25;14.05;;;7.10;99.90;;;;;;1958846;73;21548;-77
2021/05/02 04:49:14;;;;;;;25.32;14.85;;;7.20;99.90;;;;;;1958834;73;21581;-77
2021/05/02 04:51:40;;;;;;;19.82;14.10;;;7.20;99.90;;;;;;1960055;73;21115;-77
2021/05/02 04:54:06;;;;;;;25.95;15.00;;;7.20;99.90;;;;;;1958854;73;21109;-77
2021/05/02 04:56:32;;;;;;;22.52;15.25;;;7.20;99.90;;;;;;1958951;73;21097;-77
2021/05/02 04:59:00;;;;;;;21.55;14.28;;;7.20;99.90;;;;;;1958831;73;21159;-78
2021/05/02 05:01:26;;;;;;;24.50;15.83;;;7.20;99.90;;;;;;1958730;73;21505;-77
2021/05/02 05:03:54;;;;;;;24.02;15.00;;;7.20;99.90;;;;;;1958760;73;21056;-77
2021/05/02 05:06:21;;;;;;;23.22;14.43;;;7.20;99.90;;;;;;1958880;73;21608;-77
2021/05/02 05:08:47;;;;;;;25.68;15.85;;;7.20;99.90;;;;;;1958757;73;21046;-77
2021/05/02 05:11:13;;;;;;;25.50;15.15;;;7.30;99.90;;;;;;1958894;73;21178;-77
2021/05/02 05:13:39;;;;;;;26.97;14.53;;;7.30;99.90;;;;;;1958879;73;21202;-78
2021/05/02 05:16:05;;;;;;;23.35;13.85;;;7.30;99.90;;;;;;1958708;73;21068;-77
2021/05/02 05:18:31;;;;;;;25.77;14.90;;;7.40;99.90;;;;;;1958992;73;21132;-77
2021/05/02 05:20:58;;;;;;;21.57;12.85;;;7.30;99.90;;;;;;1958704;73;21069;-76
2021/05/02 05:23:24;;;;;;;22.48;13.88;;;7.30;99.90;;;;;;1958975;73;21157;-76
2021/05/02 05:25:50;;;;;;;24.32;13.95;;;7.30;99.90;;;;;;1958621;73;21164;-75
2021/05/02 05:28:16;;;;;;;24.50;13.50;;;7.30;99.90;;;;;;1958880;73;21104;-75
2021/05/02 05:30:42;;;;;;;24.25;13.28;;;7.20;99.90;;;;;;1958642;73;21573;-74
2021/05/02 05:33:08;;;;;;;17.45;12.60;;;7.30;99.90;;;;;;1958897;73;21480;-74
2021/05/02 05:35:34;;;;;;;18.95;12.98;;;7.40;99.90;;;;;;1958772;73;21517;-75
2021/05/02 05:38:00;;;;;;;21.37;13.13;;;7.40;99.90;;;;;;1958780;73;21650;-75
2021/05/02 05:40:27;;;;;;;22.60;14.00;;;7.60;99.90;;;;;;1958745;73;21523;-75
2021/05/02 05:42:53;;;;;;;21.07;13.68;;;7.70;99.90;;;;;;1958739;73;21147;-75
2021/05/02 05:45:21;;;;;;;22.70;15.00;;;7.80;99.90;;;;;;1958729;73;21081;-75
2021/05/02 05:47:47;;;;;;;20.72;14.18;;;7.70;99.90;;;;;;1952929;73;21111;-75
2021/05/02 05:50:14;;;;;;;23.27;14.18;;;7.80;99.90;;;;;;1955826;73;21527;-75
2021/05/02 05:52:41;;;;;;;23.45;15.13;;;7.80;99.90;;;;;;1958520;73;21202;-75
2021/05/02 05:55:07;;;;;;;21.80;13.78;;;7.90;99.90;;;;;;1958664;73;21100;-75
2021/05/02 05:57:33;;;;;;;24.98;14.15;;;7.90;99.90;;;;;;1958784;73;21092;-75
2021/05/02 06:00:01;;;;;;;17.40;12.90;;;8.00;99.90;;;;;;1958682;73;21145;-77
2021/05/02 06:02:27;;;;;;;22.17;14.10;;;7.90;99.90;;;;;;1955692;73;21221;-76
2021/05/02 06:04:53;;;;;;;21.80;14.38;;;7.90;99.90;;;;;;1958897;73;21077;-76
2021/05/02 06:07:19;;;;;;;20.48;13.60;;;8.00;99.90;;;;;;1958868;73;21100;-76
2021/05/02 06:09:45;;;;;;;27.77;13.48;;;8.20;99.90;;;;;;1923308;73;21130;-78
2021/05/02 06:12:11;;;;;;;17.62;12.23;;;8.40;99.90;;;;;;1958782;73;21069;-75
2021/05/02 06:14:37;;;;;;;23.30;13.32;;;8.50;99.90;;;;;;1958762;73;21097;-75
2021/05/02 06:17:03;;;;;;;23.27;13.30;;;8.60;99.90;;;;;;1958784;73;21182;-75
2021/05/02 06:19:30;;;;;;;23.15;14.25;;;8.80;99.90;;;;;;1958817;73;21093;-75
2021/05/02 06:21:56;;;;;;;19.55;12.47;;;8.90;99.90;;;;;;1958928;73;21162;-75
2021/05/02 06:24:22;;;;;;;16.25;11.78;;;9.20;99.90;;;;;;1958788;73;21067;-75
2021/05/02 06:26:49;;;;;;;19.90;10.93;;;9.00;99.90;;;;;;1958715;73;21108;-75
2021/05/02 06:29:16;;;;;;;24.30;11.18;;;8.50;99.90;;;;;;1958959;73;21098;-75
2021/05/02 06:31:42;;;;;;;18.23;10.50;;;8.70;99.90;;;;;;1958898;73;21065;-75
2021/05/02 06:34:08;;;;;;;16.00;10.48;;;8.60;99.90;;;;;;1958721;73;21036;-76
2021/05/02 06:36:34;;;;;;;14.45;9.50;;;8.70;99.90;;;;;;1958817;73;21093;-73
2021/05/02 06:39:00;;;;;;;14.50;10.63;;;8.80;99.90;;;;;;1958812;73;21151;-74
2021/05/02 06:41:26;;;;;;;18.23;11.35;;;8.90;99.90;;;;;;1958729;73;21067;-73
2021/05/02 06:43:52;;;;;;;16.55;9.80;;;8.70;99.90;;;;;;1958657;73;21036;-73
2021/05/02 06:46:28;;;;;;;15.58;10.70;;;8.70;99.90;;;;;;1958722;73;21092;-73
2021/05/02 06:48:54;;;;;;;12.95;9.90;;;8.70;99.90;;;;;;1958828;73;21153;-76
2021/05/02 06:51:20;;;;;;;14.47;9.38;;;8.60;99.90;;;;;;1958824;73;21134;-75
2021/05/02 06:53:46;;;;;;;13.85;10.20;;;8.60;99.90;;;;;;1958639;73;21079;-73
2021/05/02 06:56:12;;;;;;;13.88;9.40;;;8.70;99.90;;;;;;1958777;73;21178;-73
2021/05/02 06:58:38;;;;;;;16.27;9.90;;;8.50;99.90;;;;;;1958731;73;21080;-75
2021/05/02 07:01:05;;;;;;;14.05;9.03;;;8.60;99.90;;;;;;1959475;73;21499;-75
2021/05/02 07:03:31;;;;;;;16.42;9.95;;;8.60;99.90;;;;;;1958693;73;21570;-73
2021/05/02 07:05:58;;;;;;;13.58;8.93;;;8.80;99.90;;;;;;1958895;73;21532;-73
2021/05/02 07:08:24;;;;;;;18.98;10.53;;;8.80;99.90;;;;;;1958628;73;21133;-72
2021/05/02 07:10:50;;;;;;;14.47;9.28;;;9.00;99.90;;;;;;1958719;73;21085;-72
2021/05/02 07:13:16;;;;;;;14.75;9.58;;;9.10;99.90;;;;;;1958738;73;21664;-72
2021/05/02 07:15:42;;;;;;;18.40;9.08;;;9.20;99.90;;;;;;1958369;73;21435;-72
2021/05/02 07:18:09;;;;;;;17.20;8.83;;;9.40;99.90;;;;;;1958363;73;21474;-74
2021/05/02 07:20:35;;;;;;;17.00;9.00;;;9.50;99.90;;;;;;1958441;73;21066;-74
2021/05/02 07:23:01;;;;;;;16.50;8.75;;;9.60;99.90;;;;;;1958329;73;21098;-75
2021/05/02 07:25:28;;;;;;;15.70;8.15;;;9.50;99.90;;;;;;1958466;73;21497;-74
2021/05/02 07:27:54;;;;;;;13.00;8.23;;;9.70;99.90;;;;;;1958300;73;21047;-75
2021/05/02 07:30:20;;;;;;;17.80;9.03;;;9.70;99.90;;;;;;1958470;73;21075;-75
2021/05/02 07:32:46;;;;;;;12.13;8.33;;;9.50;99.90;;;;;;1958449;73;21031;-75
2021/05/02 07:35:12;;;;;;;12.07;8.53;;;9.10;99.90;;;;;;1958523;73;21067;-75
2021/05/02 07:37:38;;;;;;;13.75;8.80;;;9.10;99.90;;;;;;1958356;73;21151;-75
2021/05/02 07:40:04;;;;;;;11.85;7.60;;;9.10;99.90;;;;;;1958302;73;21074;-74
2021/05/02 07:42:30;;;;;;;11.65;7.30;;;9.10;99.90;;;;;;1958317;73;21533;-75
2021/05/02 07:44:57;;;;;;;12.35;7.80;;;9.40;99.90;;;;;;1958434;73;21458;-76
2021/05/02 07:47:23;;;;;;;8.50;6.62;;;9.40;99.90;;;;;;1958537;73;21579;-75
2021/05/02 07:49:49;;;;;;;12.30;7.42;;;9.60;99.90;;;;;;1958425;73;21470;-75
2021/05/02 07:52:15;;;;;;;8.93;7.08;;;9.70;99.90;;;;;;1958336;73;21046;-76
2021/05/02 07:54:41;;;;;;;13.25;7.90;;;9.80;99.90;;;;;;1958471;73;21207;-76
2021/05/02 07:57:07;;;;;;;12.35;7.42;;;9.60;99.90;;;;;;1958294;73;21032;-76
2021/05/02 07:59:33;;;;;;;14.35;8.23;;;9.90;99.90;;;;;;1943823;73;21157;-75
2021/05/02 08:01:59;;;;;;;11.10;6.47;;;10.30;99.90;;;;;;1946393;73;21592;-75
2021/05/02 08:04:26;;;;;;;9.85;6.80;;;10.30;99.90;;;;;;1952009;73;21055;-76
2021/05/02 08:06:52;;;;;;;13.20;6.97;;;10.60;99.90;;;;;;1949617;73;21047;-75
2021/05/02 08:09:18;;;;;;;11.93;6.85;;;10.60;99.90;;;;;;1954183;73;21148;-76
2021/05/02 08:11:44;;;;;;;12.05;6.72;;;10.60;99.90;;;;;;1949127;73;21155;-75
2021/05/02 08:14:10;;;;;;;9.98;7.03;;;10.70;99.90;;;;;;1958403;73;21039;-73
2021/05/02 08:16:36;;;;;;;11.78;6.72;;;11.00;99.90;;;;;;1958480;73;21136;-75
2021/05/02 08:19:03;;;;;;;8.48;6.37;;;11.40;99.90;;;;;;1958352;73;21491;-75
2021/05/02 08:21:29;;;;;;;8.73;6.00;;;11.40;99.90;;;;;;1958547;73;21466;-75
2021/05/02 08:23:55;;;;;;;11.05;6.50;;;11.10;99.90;;;;;;1958389;73;21523;-74
2021/05/02 08:26:21;;;;;;;14.80;7.00;;;11.10;99.90;;;;;;1958493;73;21575;-75
2021/05/02 08:28:47;;;;;;;9.65;5.55;;;10.90;99.90;;;;;;1958418;73;21034;-77
2021/05/02 08:31:13;;;;;;;9.70;6.25;;;10.60;99.90;;;;;;1958441;73;21058;-79
2021/05/02 08:33:39;;;;;;;6.62;5.30;;;10.50;99.90;;;;;;1958564;73;21143;-77
2021/05/02 08:36:05;;;;;;;12.53;6.30;;;10.40;99.90;;;;;;1958489;73;21137;-75
2021/05/02 08:38:32;;;;;;;9.23;6.00;;;10.50;99.90;;;;;;1958376;73;21112;-76
2021/05/02 08:40:58;;;;;;;15.60;6.65;;;10.60;99.90;;;;;;1958375;72;21082;-75
2021/05/02 08:43:24;;;;;;;10.30;6.78;;;10.90;99.90;;;;;;1958513;73;21079;-84
2021/05/02 08:45:50;;;;;;;10.10;6.47;;;11.10;99.90;;;;;;1958340;73;21132;-75
2021/05/02 08:48:16;;;;;;;8.35;6.30;;;11.30;99.90;;;;;;1958499;73;21039;-74
2021/05/02 08:50:42;;;;;;;9.28;6.28;;;11.20;99.90;;;;;;1958494;73;21082;-76
2021/05/02 08:53:08;;;;;;;10.08;6.65;;;11.00;99.90;;;;;;1958409;73;21071;-76
2021/05/02 08:55:36;;;;;;;8.13;5.83;;;11.30;99.90;;;;;;1958667;73;21078;-75
2021/05/02 08:58:02;;;;;;;10.50;5.85;;;11.40;99.90;;;;;;1958687;73;21486;-74
2021/05/02 09:00:28;;;;;;;10.45;6.50;;;11.30;99.90;;;;;;1958597;73;21564;-76
2021/05/02 09:02:54;;;;;;;8.50;6.17;;;11.50;99.90;;;;;;1958591;73;21494;-75
2021/05/02 09:05:21;;;;;;;9.65;5.95;;;11.50;99.90;;;;;;1958769;73;21193;-76
2021/05/02 09:07:47;;;;;;;13.08;6.17;;;12.10;99.90;;;;;;1958762;73;21109;-76
2021/05/02 09:10:13;;;;;;;9.63;5.92;;;12.30;99.90;;;;;;1958628;73;21078;-77
2021/05/02 09:12:39;;;;;;;9.73;5.72;;;12.10;99.90;;;;;;1958656;73;21152;-75
2021/05/02 09:15:06;;;;;;;18.45;6.37;;;12.20;99.90;;;;;;1958707;73;21070;-76
2021/05/02 09:17:39;;;;;;;11.18;6.03;;;12.10;99.90;;;;;;1958644;73;21094;-76
2021/05/02 09:20:01;;;;;;;9.98;5.40;;;12.50;99.90;;;;;;1957424;73;21171;-76
2021/05/02 09:22:28;;;;;;;10.70;5.90;;;12.80;99.90;;;;;;1958603;73;21144;-75
2021/05/02 09:24:56;;;;;;;8.18;5.35;;;13.00;99.90;;;;;;1958701;73;21074;-77
2021/05/02 09:27:23;;;;;;;7.35;5.25;;;13.00;99.90;;;;;;1958711;73;21505;-76
2021/05/02 09:29:49;;;;;;;7.87;5.50;;;12.60;99.90;;;;;;1958712;73;21486;-75
2021/05/02 09:32:16;;;;;;;9.43;5.53;;;12.30;99.90;;;;;;1958674;73;21545;-75
2021/05/02 09:34:43;;;;;;;9.18;5.58;;;11.70;99.90;;;;;;1958838;73;21506;-76
2021/05/02 09:37:11;;;;;;;10.00;5.62;;;11.80;99.90;;;;;;1958900;73;21040;-80
2021/05/02 09:39:39;;;;;;;7.67;5.40;;;11.90;99.90;;;;;;1946803;73;21503;-88
2021/05/02 09:42:21;;;;;;;;;;;;;;;;;;;;;
2021/05/02 09:47:12;;;;;;;12.40;5.60;;;11.70;99.90;;;;;;1850529;76;21112;-83
2021/05/02 09:50:00;;;;;;;;;;;;;;;;;;;;;
2021/05/02 09:52:17;;;;;;;14.35;6.15;;;11.10;99.90;;;;;;1934389;72;21144;-82
2021/05/02 09:54:43;;;;;;;7.10;5.50;;;11.40;99.90;;;;;;1958014;73;21168;-84
2021/05/02 09:57:13;;;;;;;12.00;5.83;;;11.60;99.90;;;;;;1959421;73;21033;-84
2021/05/02 09:59:55;;;;;;;;;;;;;;;;;;;;;
2021/05/02 10:02:13;;;;;;;7.75;5.33;;;12.70;99.90;;;;;;1954401;73;20115;-83
2021/05/02 10:04:43;;;;;;;12.73;6.20;;;12.90;99.90;;;;;;1958870;73;21063;-82
2021/05/02 10:07:07;;;;;;;8.55;5.62;;;12.50;99.90;;;;;;1958285;73;21039;-79
2021/05/02 10:09:33;;;;;;;8.73;5.65;;;12.10;99.90;;;;;;1958813;73;21059;-80
2021/05/02 10:11:59;;;;;;;11.05;6.12;;;11.70;99.90;;;;;;1958793;73;21109;-82
2021/05/02 10:14:27;;;;;;;9.28;5.28;;;11.60;99.90;;;;;;1958945;73;21067;-80
2021/05/02 10:16:53;;;;;;;9.20;5.97;;;11.60;99.90;;;;;;1958832;73;21047;-79
2021/05/02 10:19:19;;;;;;;9.68;6.67;;;11.30;99.90;;;;;;1958755;73;21197;-78
2021/05/02 10:21:46;;;;;;;10.98;6.90;;;11.30;99.90;;;;;;1958647;73;21148;-77
2021/05/02 10:24:12;;;;;;;11.35;6.80;;;11.40;99.90;;;;;;1955554;73;21580;-77
2021/05/02 10:26:38;;;;;;;10.90;6.72;;;11.30;99.90;;;;;;1958792;73;21424;-77
2021/05/02 10:29:06;;;;;;;12.63;6.97;;;11.20;99.90;;;;;;1947837;73;21541;-78
2021/05/02 10:31:32;;;;;;;11.93;7.37;;;11.30;99.90;;;;;;1956882;73;21058;-77
2021/05/02 10:33:58;;;;;;;10.28;6.60;;;11.50;99.90;;;;;;1958295;73;21047;-74
2021/05/02 10:36:25;;;;;;;9.88;6.12;;;11.80;99.90;;;;;;1952929;73;21071;-81
2021/05/02 10:38:52;;;;;;;12.65;7.33;;;12.30;99.90;;;;;;1954708;73;21175;-76
2021/05/02 10:41:18;;;;;;;14.87;6.33;;;12.80;99.90;;;;;;1955731;73;21159;-76
2021/05/02 10:43:46;;;;;;;9.18;6.28;;;13.20;99.90;;;;;;1958002;73;21043;-76
2021/05/02 10:46:16;;;;;;;14.85;7.83;;;13.40;99.90;;;;;;1955966;73;21128;-77
2021/05/02 10:48:40;;;;;;;10.60;7.58;;;13.40;99.90;;;;;;1957823;73;21609;-79
2021/05/02 10:51:06;;;;;;;10.28;6.40;;;13.50;99.90;;;;;;1958152;73;21494;-81
2021/05/02 10:53:59;;;;;;;9.58;5.78;;;13.10;99.90;;;;;;1963093;72;22263;-80
2021/05/02 10:56:25;;;;;;;9.68;6.17;;;13.10;99.90;;;;;;1931033;73;21537;-76
2021/05/02 10:58:52;;;;;;;10.43;5.85;;;12.80;99.90;;;;;;1903281;75;21537;-75
2021/05/02 11:01:18;;;;;;;10.30;6.08;;;12.80;99.90;;;;;;1897098;75;21441;-76
2021/05/02 11:03:44;;;;;;;9.83;6.30;;;12.70;99.90;;;;;;1939007;73;21471;-76
2021/05/02 11:06:10;;;;;;;9.65;5.72;;;12.80;99.90;;;;;;1934962;73;21479;-77
2021/05/02 11:08:36;;;;;;;13.20;6.12;;;12.80;99.90;;;;;;1936609;73;21120;-78
2021/05/02 11:11:02;;;;;;;14.65;6.22;;;12.90;99.90;;;;;;1936982;74;21085;-77
2021/05/02 11:13:29;;;;;;;11.33;5.10;;;13.30;99.90;;;;;;1936909;74;21059;-77
2021/05/02 11:15:55;;;;;;;7.72;5.28;;;13.90;99.90;;;;;;1938978;73;21086;-77
2021/05/02 11:18:21;;;;;;;7.20;4.90;;;14.20;99.90;;;;;;1937173;73;21811;-78
2021/05/02 11:20:47;;;;;;;6.62;4.60;;;14.20;99.90;;;;;;1936562;73;21179;-77
2021/05/02 11:23:13;;;;;;;8.88;4.87;;;14.40;99.90;;;;;;1934831;73;21096;-78
2021/05/02 11:25:42;;;;;;;8.18;5.33;;;14.80;99.90;;;;;;1903137;75;21037;-76
2021/05/02 11:28:08;;;;;;;12.53;5.20;;;14.90;99.90;;;;;;1936819;74;21534;-75
2021/05/02 11:30:34;;;;;;;6.25;4.87;;;14.40;99.90;;;;;;1930431;73;21128;-75
2021/05/02 11:33:00;;;;;;;11.53;5.17;;;14.20;99.90;;;;;;1937055;74;21108;-76
2021/05/02 11:35:26;;;;;;;9.23;5.42;;;14.30;99.90;;;;;;1942543;73;21129;-77
2021/05/02 11:37:52;;;;;;;8.05;5.10;;;13.90;99.90;;;;;;1936532;73;21462;-75
2021/05/02 11:40:20;;;;;;;9.28;5.62;;;13.70;99.90;;;;;;1939403;73;21608;-78
2021/05/02 11:42:46;;;;;;;10.13;5.35;;;13.30;99.90;;;;;;1934140;73;21217;-75
2021/05/02 11:45:12;;;;;;;10.30;5.05;;;13.10;99.90;;;;;;1918315;75;21122;-75
2021/05/02 11:47:41;;;;;;;10.13;5.95;;;12.90;99.90;;;;;;1941264;73;21069;-83
2021/05/02 11:50:07;;;;;;;9.23;6.22;;;12.70;99.90;;;;;;1909857;73;21064;-74
2021/05/02 11:52:34;;;;;;;8.98;6.10;;;12.50;99.90;;;;;;1905782;75;21149;-77
2021/05/02 11:55:00;;;;;;;13.48;6.90;;;12.20;99.90;;;;;;1933688;73;21168;-75
2021/05/02 11:57:26;;;;;;;10.70;6.75;;;11.60;99.90;;;;;;1931319;73;21032;-73
2021/05/02 11:59:52;;;;;;;8.48;6.47;;;10.90;99.90;;;;;;1937267;74;21135;-76
2021/05/02 12:02:18;;;;;;;10.30;6.87;;;10.60;99.90;;;;;;1940309;73;21063;-75
2021/05/02 12:04:44;;;;;;;9.70;6.47;;;10.20;99.90;;;;;;1941367;73;21028;-72
2021/05/02 12:07:10;;;;;;;15.98;8.30;;;10.10;99.90;;;;;;1932904;73;21055;-74
2021/05/02 12:09:36;;;;;;;12.45;7.45;;;10.60;99.90;;;;;;1932563;73;21060;-75
2021/05/02 12:12:04;;;;;;;13.85;8.63;;;11.20;99.90;;;;;;1929025;73;21072;-74
2021/05/02 12:14:31;;;;;;;16.75;8.38;;;11.50;99.90;;;;;;1913048;75;21154;-75
2021/05/02 12:16:58;;;;;;;13.10;7.25;;;11.60;99.90;;;;;;1940035;73;21058;-74
2021/05/02 12:19:24;;;;;;;10.03;6.85;;;11.90;99.90;;;;;;1929495;73;21070;-78
2021/05/02 12:21:51;;;;;;;15.55;7.30;;;12.20;99.90;;;;;;1936232;73;21067;-77
2021/05/02 12:24:20;;;;;;;13.25;8.53;;;12.30;99.90;;;;;;1893970;75;21129;-76
2021/05/02 12:26:47;;;;;;;11.10;7.58;;;12.10;99.90;;;;;;1936641;74;21428;-77
2021/05/02 12:29:13;;;;;;;10.38;6.97;;;11.90;99.90;;;;;;1936408;74;21522;-78
2021/05/02 12:31:39;;;;;;;13.78;7.47;;;12.00;99.90;;;;;;1936720;74;21045;-75
2021/05/02 12:34:05;;;;;;;9.90;6.50;;;12.50;99.90;;;;;;1933073;73;21063;-76
2021/05/02 12:36:31;;;;;;;13.78;7.47;;;12.80;99.90;;;;;;1936578;74;21083;-76
2021/05/02 12:38:57;;;;;;;10.25;6.72;;;12.90;99.90;;;;;;1939233;73;21054;-74
2021/05/02 12:41:23;;;;;;;10.70;7.00;;;12.60;99.90;;;;;;1945109;73;21137;-73